createdAt,value
2022-12-29T00:02:39.092Z,4.73
2022-12-29T00:05:25.033Z,4.75
2022-12-29T00:08:10.311Z,4.81
2022-12-29T00:10:55.794Z,4.78
2022-12-29T00:14:00.898Z,4.77
2022-12-29T00:16:46.782Z,4.76
2022-12-29T00:19:50.896Z,4.73
2022-12-29T00:22:55.009Z,4.73
2022-12-29T00:25:59.202Z,4.71
2022-12-29T00:29:03.175Z,4.74
2022-12-29T00:32:07.641Z,4.77
2022-12-29T00:35:11.390Z,4.76
2022-12-29T00:38:21.670Z,4.69
2022-12-29T00:41:26.695Z,4.73
2022-12-29T00:44:15.336Z,4.70
2022-12-29T00:47:05.482Z,4.68
2022-12-29T00:49:51.145Z,4.69
2022-12-29T00:52:36.925Z,4.69
2022-12-29T00:55:22.338Z,4.73
2022-12-29T00:58:07.562Z,4.69
2022-12-29T01:00:53.120Z,4.68
2022-12-29T01:03:39.406Z,4.72
2022-12-29T01:06:25.267Z,4.74
2022-12-29T01:09:30.091Z,4.69
2022-12-29T01:12:15.749Z,4.69
2022-12-29T01:15:01.138Z,4.63
2022-12-29T01:17:46.688Z,4.66
2022-12-29T01:20:32.084Z,4.66
2022-12-29T01:23:17.596Z,4.62
2022-12-29T01:26:15.250Z,4.59
2022-12-29T01:29:00.661Z,4.56
2022-12-29T01:31:46.188Z,4.53
2022-12-29T01:34:31.701Z,4.50
2022-12-29T01:37:17.278Z,4.47
2022-12-29T01:40:04.309Z,4.48
2022-12-29T01:42:51.118Z,4.48
2022-12-29T01:45:36.652Z,4.47
2022-12-29T01:48:22.543Z,4.49
2022-12-29T01:51:08.366Z,4.49
2022-12-29T01:53:56.461Z,4.53
2022-12-29T01:56:43.105Z,4.51
2022-12-29T01:59:33.176Z,4.54
2022-12-29T02:02:19.259Z,4.56
2022-12-29T02:05:12.471Z,4.51
2022-12-29T02:07:58.181Z,4.50
2022-12-29T02:10:45.532Z,4.44
2022-12-29T02:13:31.229Z,4.42
2022-12-29T02:16:38.327Z,4.42
2022-12-29T02:19:33.356Z,4.39
2022-12-29T02:22:37.292Z,4.42
2022-12-29T02:25:47.819Z,4.41
2022-12-29T02:29:06.671Z,4.42
2022-12-29T02:32:27.536Z,4.38
2022-12-29T02:36:08.916Z,4.45
2022-12-29T02:39:19.027Z,4.45
2022-12-29T02:42:35.749Z,4.49
2022-12-29T02:45:38.090Z,4.56
2022-12-29T02:48:42.666Z,4.57
2022-12-29T02:51:33.500Z,4.58
2022-12-29T02:54:40.328Z,4.64
2022-12-29T02:57:26.758Z,4.69
2022-12-29T03:00:16.200Z,4.74
2022-12-29T03:03:18.045Z,4.76
2022-12-29T03:06:31.642Z,4.78
2022-12-29T03:09:38.917Z,4.70
2022-12-29T03:12:48.814Z,4.68
2022-12-29T03:16:06.645Z,4.73
2022-12-29T03:19:15.498Z,4.77
2022-12-29T03:22:29.317Z,4.82
2022-12-29T03:25:29.324Z,4.81
2022-12-29T03:28:22.177Z,4.86
2022-12-29T03:31:10.371Z,4.87
2022-12-29T03:33:59.793Z,4.84
2022-12-29T03:36:57.840Z,4.86
2022-12-29T03:39:44.769Z,4.87
2022-12-29T03:42:33.879Z,4.92
2022-12-29T03:45:20.847Z,4.92
2022-12-29T03:48:06.441Z,4.94
2022-12-29T03:50:52.599Z,4.95
2022-12-29T03:53:37.932Z,5.01
2022-12-29T03:56:23.462Z,5.03
2022-12-29T03:59:10.027Z,5.04
2022-12-29T04:01:58.684Z,5.02
2022-12-29T04:04:44.280Z,4.97
2022-12-29T04:07:29.576Z,4.91
2022-12-29T04:10:17.572Z,4.84
2022-12-29T04:13:05.644Z,4.82
2022-12-29T04:15:51.057Z,4.75
2022-12-29T04:18:37.361Z,4.79
2022-12-29T04:21:22.886Z,4.80
2022-12-29T04:24:08.401Z,4.84
2022-12-29T04:26:58.505Z,4.86
2022-12-29T04:30:07.884Z,4.81
2022-12-29T04:33:11.911Z,4.77
2022-12-29T04:35:58.805Z,4.76
2022-12-29T04:38:44.012Z,4.75
2022-12-29T04:41:29.876Z,4.78
2022-12-29T04:44:15.382Z,4.79
2022-12-29T04:47:19.302Z,4.84
2022-12-29T04:50:41.070Z,4.79
2022-12-29T04:53:37.767Z,4.77
2022-12-29T04:56:23.481Z,4.72
2022-12-29T04:59:09.043Z,4.67
2022-12-29T05:01:54.613Z,4.65
2022-12-29T05:04:40.311Z,4.68
2022-12-29T05:07:26.242Z,4.67
2022-12-29T05:10:13.545Z,4.67
2022-12-29T05:13:00.160Z,4.60
2022-12-29T05:15:52.212Z,4.61
2022-12-29T05:18:37.803Z,4.67
2022-12-29T05:21:23.062Z,4.72
2022-12-29T05:24:08.482Z,4.73
2022-12-29T05:26:54.470Z,4.71
2022-12-29T05:29:58.863Z,4.65
2022-12-29T05:32:44.411Z,4.54
2022-12-29T05:35:29.940Z,4.51
2022-12-29T05:38:16.075Z,4.42
2022-12-29T05:41:02.840Z,4.41
2022-12-29T05:44:17.262Z,4.32
2022-12-29T05:47:32.841Z,4.32
2022-12-29T05:50:48.896Z,4.35
2022-12-29T05:53:36.043Z,4.38
2022-12-29T05:56:21.829Z,4.37
2022-12-29T05:59:13.765Z,4.34
2022-12-29T06:02:00.345Z,4.36
2022-12-29T06:04:47.153Z,4.30
2022-12-29T06:07:32.521Z,4.34
2022-12-29T06:10:19.070Z,4.29
2022-12-29T06:13:16.330Z,4.25
2022-12-29T06:16:04.992Z,4.27
2022-12-29T06:18:51.068Z,4.25
2022-12-29T06:21:36.406Z,4.22
2022-12-29T06:24:22.516Z,4.25
2022-12-29T06:27:08.388Z,4.31
2022-12-29T06:29:53.865Z,4.26
2022-12-29T06:32:39.314Z,4.25
2022-12-29T06:35:27.935Z,4.28
2022-12-29T06:38:13.714Z,4.30
2022-12-29T06:40:59.292Z,4.32
2022-12-29T06:43:54.044Z,4.33
2022-12-29T06:46:58.727Z,4.44
2022-12-29T06:49:44.237Z,4.48
2022-12-29T06:52:29.666Z,4.44
2022-12-29T06:55:15.231Z,4.44
2022-12-29T06:58:02.062Z,4.34
2022-12-29T07:00:47.610Z,4.32
2022-12-29T07:03:33.154Z,4.29
2022-12-29T07:06:18.844Z,4.30
2022-12-29T07:09:04.766Z,4.26
2022-12-29T07:11:50.214Z,4.23
2022-12-29T07:14:40.860Z,4.23
2022-12-29T07:17:28.414Z,4.25
2022-12-29T07:20:13.828Z,4.25
2022-12-29T07:22:59.381Z,4.20
2022-12-29T07:25:44.947Z,4.26
2022-12-29T07:28:30.579Z,4.23
2022-12-29T07:31:18.142Z,4.18
2022-12-29T07:34:03.907Z,4.15
2022-12-29T07:36:49.139Z,4.10
2022-12-29T07:39:34.479Z,4.09
2022-12-29T07:42:19.944Z,4.06
2022-12-29T07:45:10.733Z,4.02
2022-12-29T07:48:22.520Z,4.00
2022-12-29T07:51:07.980Z,4.07
2022-12-29T07:53:53.312Z,4.12
2022-12-29T07:56:38.638Z,4.10
2022-12-29T07:59:24.020Z,4.10
2022-12-29T08:02:12.435Z,4.11
2022-12-29T08:04:58.300Z,4.10
2022-12-29T08:07:45.313Z,4.06
2022-12-29T08:10:30.649Z,4.03
2022-12-29T08:13:15.934Z,3.96
2022-12-29T08:16:01.515Z,3.94
2022-12-29T08:18:47.195Z,3.97
2022-12-29T08:21:32.520Z,3.99
2022-12-29T08:24:17.924Z,3.96
2022-12-29T08:27:12.049Z,3.92
2022-12-29T08:30:04.574Z,3.90
2022-12-29T08:32:49.933Z,3.94
2022-12-29T08:35:35.379Z,4.00
2022-12-29T08:38:20.735Z,3.94
2022-12-29T08:41:06.434Z,3.93
2022-12-29T08:43:52.089Z,3.89
2022-12-29T08:46:37.846Z,3.85
2022-12-29T08:49:23.056Z,3.86
2022-12-29T08:52:09.399Z,3.86
2022-12-29T08:54:54.849Z,3.82
2022-12-29T08:57:40.652Z,3.86
2022-12-29T09:00:32.729Z,3.86
2022-12-29T09:03:37.527Z,3.82
2022-12-29T09:06:24.172Z,3.79
2022-12-29T09:09:09.671Z,3.80
2022-12-29T09:11:55.190Z,3.81
2022-12-29T09:14:40.910Z,3.83
2022-12-29T09:17:44.773Z,3.83
2022-12-29T09:20:30.366Z,3.85
2022-12-29T09:23:15.726Z,3.80
2022-12-29T09:26:01.407Z,3.81
2022-12-29T09:28:48.202Z,3.86
2022-12-29T09:31:33.838Z,3.89
2022-12-29T09:34:19.628Z,3.88
2022-12-29T09:37:04.995Z,3.88
2022-12-29T09:39:54.262Z,3.86
2022-12-29T09:42:51.603Z,3.80
2022-12-29T09:45:56.177Z,3.75
2022-12-29T09:48:47.443Z,3.80
2022-12-29T09:51:36.298Z,3.84
2022-12-29T09:54:39.843Z,3.86
2022-12-29T09:57:33.805Z,3.89
2022-12-29T10:00:29.557Z,3.88
2022-12-29T10:03:18.037Z,3.90
2022-12-29T10:06:23.530Z,4.04
2022-12-29T10:09:36.048Z,4.09
2022-12-29T10:12:46.403Z,4.07
2022-12-29T10:15:43.849Z,3.97
2022-12-29T10:18:58.678Z,3.98
2022-12-29T10:21:59.434Z,4.06
2022-12-29T10:24:48.603Z,4.24
2022-12-29T10:27:34.567Z,4.26
2022-12-29T10:30:20.606Z,4.18
2022-12-29T10:33:11.325Z,4.18
2022-12-29T10:35:57.466Z,4.33
2022-12-29T10:38:54.287Z,4.41
2022-12-29T10:41:47.392Z,4.50
2022-12-29T10:44:34.357Z,4.60
2022-12-29T10:47:25.727Z,4.65
2022-12-29T10:50:13.873Z,4.66
2022-12-29T10:53:03.873Z,4.62
2022-12-29T10:55:50.633Z,4.61
2022-12-29T10:58:37.056Z,4.59
2022-12-29T11:01:25.351Z,4.55
2022-12-29T11:04:26.557Z,4.58
2022-12-29T11:07:16.136Z,4.60
2022-12-29T11:10:29.950Z,4.70
2022-12-29T11:13:26.345Z,4.83
2022-12-29T11:16:13.335Z,4.90
2022-12-29T11:18:59.671Z,4.89
2022-12-29T11:21:46.129Z,4.76
2022-12-29T11:24:31.436Z,4.64
2022-12-29T11:27:23.750Z,4.58
2022-12-29T11:30:23.726Z,4.57
2022-12-29T11:33:10.504Z,4.65
2022-12-29T11:36:04.124Z,4.67
2022-12-29T11:38:51.956Z,4.67
2022-12-29T11:41:37.286Z,4.68
2022-12-29T11:44:22.845Z,4.69
2022-12-29T11:47:12.661Z,4.72
2022-12-29T11:50:01.396Z,4.71
2022-12-29T11:52:49.466Z,4.72
2022-12-29T11:55:35.146Z,4.72
2022-12-29T11:58:20.899Z,4.73
2022-12-29T12:01:14.957Z,4.74
2022-12-29T12:04:03.270Z,4.77
2022-12-29T12:07:13.808Z,4.79
2022-12-29T12:10:07.389Z,4.78
2022-12-29T12:13:07.351Z,4.80
2022-12-29T12:16:23.768Z,4.81
2022-12-29T12:19:18.291Z,4.80
2022-12-29T12:22:18.829Z,4.80
2022-12-29T12:25:13.147Z,4.81
2022-12-29T12:28:05.928Z,4.81
2022-12-29T12:30:56.268Z,4.86
2022-12-29T12:33:45.991Z,4.86
2022-12-29T12:36:46.280Z,4.90
2022-12-29T12:39:50.177Z,5.00
2022-12-29T12:43:07.566Z,5.12
2022-12-29T12:46:02.706Z,5.21
2022-12-29T12:49:31.810Z,5.33
2022-12-29T12:53:02.734Z,5.49
2022-12-29T12:56:25.745Z,5.56
2022-12-29T12:59:46.747Z,5.47
2022-12-29T13:02:50.961Z,5.43
2022-12-29T13:05:57.578Z,5.39
2022-12-29T13:08:57.926Z,5.46
2022-12-29T13:11:56.382Z,5.50
2022-12-29T13:15:17.497Z,5.46
2022-12-29T13:18:28.995Z,5.45
2022-12-29T13:21:50.127Z,5.44
2022-12-29T13:24:41.674Z,5.37
2022-12-29T13:27:50.826Z,5.31
2022-12-29T13:30:42.904Z,5.19
2022-12-29T13:33:47.313Z,5.14
2022-12-29T13:36:45.240Z,5.09
2022-12-29T13:39:44.167Z,5.07
2022-12-29T13:42:30.909Z,5.06
2022-12-29T13:45:20.460Z,5.04
2022-12-29T13:48:35.234Z,5.04
2022-12-29T13:51:27.960Z,5.08
2022-12-29T13:54:43.393Z,5.10
2022-12-29T13:57:41.698Z,5.05
2022-12-29T14:00:31.636Z,5.00
2022-12-29T14:03:41.554Z,4.98
2022-12-29T14:06:31.581Z,4.94
2022-12-29T14:09:44.666Z,4.93
2022-12-29T14:12:39.676Z,4.89
2022-12-29T14:15:27.311Z,4.86
2022-12-29T14:18:17.844Z,4.85
2022-12-29T14:21:11.494Z,4.82
2022-12-29T14:24:39.800Z,4.82
2022-12-29T14:27:31.260Z,4.79
2022-12-29T14:30:49.670Z,4.76
2022-12-29T14:33:36.463Z,4.74
2022-12-29T14:36:36.051Z,4.67
2022-12-29T14:39:27.745Z,4.61
2022-12-29T14:42:23.721Z,4.53
2022-12-29T14:45:29.728Z,4.45
2022-12-29T14:48:43.432Z,4.39
2022-12-29T14:51:33.555Z,4.36
2022-12-29T14:54:34.307Z,4.36
2022-12-29T14:57:34.180Z,4.39
2022-12-29T15:00:24.766Z,4.39
2022-12-29T15:03:24.471Z,4.37
2022-12-29T15:06:13.748Z,4.36
2022-12-29T15:09:25.924Z,4.29
2022-12-29T15:12:20.787Z,4.25
2022-12-29T15:15:27.693Z,4.22
2022-12-29T15:18:23.781Z,4.22
2022-12-29T15:21:15.496Z,4.24
2022-12-29T15:24:01.825Z,4.21
2022-12-29T15:26:50.375Z,4.16
2022-12-29T15:29:45.162Z,4.12
2022-12-29T15:32:41.227Z,4.07
2022-12-29T15:35:50.406Z,4.02
2022-12-29T15:38:40.335Z,3.96
2022-12-29T15:41:33.675Z,3.91
2022-12-29T15:44:25.077Z,3.86
2022-12-29T15:47:18.858Z,3.81
2022-12-29T15:50:09.881Z,3.79
2022-12-29T15:52:56.836Z,3.82
2022-12-29T15:55:44.201Z,3.77
2022-12-29T15:58:31.885Z,3.75
2022-12-29T16:01:34.818Z,3.69
2022-12-29T16:04:20.452Z,3.60
2022-12-29T16:07:07.772Z,3.58
2022-12-29T16:10:03.773Z,3.55
2022-12-29T16:12:49.116Z,3.54
2022-12-29T16:15:34.723Z,3.55
2022-12-29T16:18:28.401Z,3.54
2022-12-29T16:21:33.818Z,3.51
2022-12-29T16:24:24.580Z,3.54
2022-12-29T16:27:19.298Z,3.58
2022-12-29T16:30:31.188Z,3.64
2022-12-29T16:33:49.393Z,3.71
2022-12-29T16:36:41.927Z,3.74
2022-12-29T16:39:45.534Z,3.73
2022-12-29T16:42:51.273Z,3.74
2022-12-29T16:45:46.691Z,3.70
2022-12-29T16:48:50.850Z,3.68
2022-12-29T16:51:39.198Z,3.63
2022-12-29T16:54:29.603Z,3.63
2022-12-29T16:57:15.467Z,3.64
2022-12-29T17:00:04.168Z,3.63
2022-12-29T17:02:52.170Z,3.66
2022-12-29T17:05:37.840Z,3.69
2022-12-29T17:08:26.018Z,3.73
2022-12-29T17:11:44.448Z,3.72
2022-12-29T17:14:41.849Z,3.63
2022-12-29T17:17:35.607Z,3.61
2022-12-29T17:20:30.620Z,3.65
2022-12-29T17:23:22.746Z,3.67
2022-12-29T17:26:13.159Z,3.67
2022-12-29T17:28:58.736Z,3.61
2022-12-29T17:31:44.074Z,3.58
2022-12-29T17:34:30.265Z,3.62
2022-12-29T17:37:30.540Z,3.57
2022-12-29T17:40:19.179Z,3.53
2022-12-29T17:43:04.556Z,3.45
2022-12-29T17:45:54.558Z,3.43
2022-12-29T17:48:39.925Z,3.42
2022-12-29T17:51:25.483Z,3.40
2022-12-29T17:54:25.768Z,3.34
2022-12-29T17:57:16.144Z,3.29
2022-12-29T18:00:01.544Z,3.35
2022-12-29T18:02:48.525Z,3.28
2022-12-29T18:05:35.011Z,3.26
2022-12-29T18:08:20.386Z,3.18
2022-12-29T18:11:32.162Z,3.12
2022-12-29T18:14:17.872Z,3.02
2022-12-29T18:17:13.008Z,3.05
2022-12-29T18:19:58.360Z,3.05
2022-12-29T18:22:43.947Z,3.06
2022-12-29T18:25:46.288Z,3.00
2022-12-29T18:28:32.214Z,2.92
2022-12-29T18:31:34.414Z,2.85
2022-12-29T18:34:20.150Z,2.97
2022-12-29T18:37:05.877Z,3.06
2022-12-29T18:39:51.608Z,3.16
2022-12-29T18:42:36.940Z,3.16
2022-12-29T18:45:24.083Z,3.15
2022-12-29T18:48:09.537Z,3.10
2022-12-29T18:50:55.230Z,3.17
2022-12-29T18:53:40.910Z,3.17
2022-12-29T18:56:26.241Z,3.19
2022-12-29T18:59:11.927Z,3.24
2022-12-29T19:01:57.577Z,3.26
2022-12-29T19:04:43.492Z,3.28
2022-12-29T19:07:29.190Z,3.31
2022-12-29T19:10:14.811Z,3.35
2022-12-29T19:13:00.791Z,3.31
2022-12-29T19:15:47.199Z,3.38
2022-12-29T19:18:43.640Z,3.42
2022-12-29T19:21:30.125Z,3.44
2022-12-29T19:24:15.809Z,3.50
2022-12-29T19:27:01.168Z,3.58
2022-12-29T19:29:46.521Z,3.58
2022-12-29T19:32:31.894Z,3.62
2022-12-29T19:35:17.331Z,3.64
2022-12-29T19:38:04.113Z,3.70
2022-12-29T19:40:50.896Z,3.73
2022-12-29T19:43:36.581Z,3.73
2022-12-29T19:46:23.377Z,3.72
2022-12-29T19:49:08.972Z,3.79
2022-12-29T19:51:54.297Z,3.83
2022-12-29T19:54:39.699Z,3.84
2022-12-29T19:57:26.267Z,3.86
2022-12-29T20:00:13.773Z,3.92
2022-12-29T20:02:59.125Z,3.90
2022-12-29T20:05:49.141Z,3.90
2022-12-29T20:08:35.279Z,3.89
2022-12-29T20:11:20.972Z,3.90
2022-12-29T20:14:06.346Z,3.93
2022-12-29T20:17:09.956Z,3.95
2022-12-29T20:19:56.708Z,3.97
2022-12-29T20:22:41.971Z,4.04
2022-12-29T20:25:46.609Z,4.12
2022-12-29T20:28:33.013Z,4.20
2022-12-29T20:31:28.908Z,4.27
2022-12-29T20:34:14.331Z,4.32
2022-12-29T20:36:59.763Z,4.37
2022-12-29T20:39:45.588Z,4.39
2022-12-29T20:42:31.189Z,4.42
2022-12-29T20:45:16.438Z,4.47
2022-12-29T20:48:01.792Z,4.51
2022-12-29T20:50:47.040Z,4.57
2022-12-29T20:53:33.776Z,4.62
2022-12-29T20:56:22.517Z,4.70
2022-12-29T20:59:27.010Z,4.75
2022-12-29T21:02:22.057Z,4.80
2022-12-29T21:05:23.633Z,4.82
2022-12-29T21:08:11.692Z,4.82
2022-12-29T21:10:58.879Z,4.80
2022-12-29T21:13:44.897Z,4.79
2022-12-29T21:16:30.628Z,4.78
2022-12-29T21:19:16.429Z,4.80
2022-12-29T21:22:02.055Z,4.79
2022-12-29T21:24:47.754Z,4.78
2022-12-29T21:27:33.472Z,4.74
2022-12-29T21:30:18.981Z,4.71
2022-12-29T21:33:05.469Z,4.69
2022-12-29T21:35:50.987Z,4.69
2022-12-29T21:38:36.558Z,4.66
2022-12-29T21:41:22.648Z,4.64
2022-12-29T21:44:26.529Z,4.64
2022-12-29T21:47:12.166Z,4.65
2022-12-29T21:49:57.818Z,4.66
2022-12-29T21:52:42.987Z,4.66
2022-12-29T21:55:28.389Z,4.64
2022-12-29T21:58:32.309Z,4.63
2022-12-29T22:01:37.309Z,4.62
2022-12-29T22:04:43.984Z,4.60
2022-12-29T22:07:48.571Z,4.57
2022-12-29T22:10:52.825Z,4.52
2022-12-29T22:13:39.420Z,4.50
2022-12-29T22:16:25.420Z,4.51
2022-12-29T22:19:11.195Z,4.51
2022-12-29T22:21:56.660Z,4.54
2022-12-29T22:24:42.048Z,4.55
2022-12-29T22:27:27.489Z,4.56
2022-12-29T22:30:13.792Z,4.59
2022-12-29T22:32:59.271Z,4.62
2022-12-29T22:35:45.117Z,4.65
2022-12-29T22:38:30.476Z,4.68
2022-12-29T22:41:16.755Z,4.70
2022-12-29T22:44:02.123Z,4.78
2022-12-29T22:46:48.027Z,4.83
2022-12-29T22:49:33.292Z,4.88
2022-12-29T22:52:19.156Z,4.94
2022-12-29T22:55:07.201Z,4.96
2022-12-29T22:57:52.677Z,5.01
2022-12-29T23:00:38.049Z,5.04
2022-12-29T23:03:23.492Z,5.09
2022-12-29T23:06:12.708Z,5.13
2022-12-29T23:09:00.497Z,5.21
2022-12-29T23:11:46.445Z,5.24
2022-12-29T23:14:31.990Z,5.28
2022-12-29T23:17:17.528Z,5.33
2022-12-29T23:20:03.669Z,5.44
2022-12-29T23:22:50.534Z,5.62
2022-12-29T23:25:37.566Z,5.82
2022-12-29T23:28:23.144Z,6.14
2022-12-29T23:31:09.002Z,6.50
2022-12-29T23:33:55.762Z,6.95
2022-12-29T23:36:41.535Z,7.16
2022-12-29T23:39:28.761Z,7.24
2022-12-29T23:42:14.481Z,7.30
2022-12-29T23:44:59.820Z,7.37
2022-12-29T23:47:45.312Z,7.35
2022-12-29T23:50:30.763Z,7.44
2022-12-29T23:53:16.394Z,7.60
2022-12-29T23:56:02.600Z,7.68
2022-12-29T23:58:49.236Z,7.76
